EGXT - Wittering
Distance from station: E 5mi, 14km
Updated: 06/18/2018 8:50am
Mostly Cloudy
Mostly Cloudy
 Wind from WSW
Wind: WSW 18 mph , 30 km/h
Temperature: 72°F , 22°C
Dew Point: 55°F , 13°C
Humidity: 57%
Barometer: 30 inHg , 1016 hPa
Clouds: Mostly Cloudy
Visibility: 6 miles , 10 km
Cloud details: Mostly Cloudy 3700 ft
2018/06/18 15:50 EGXT 181550Z 24016KT 9999 BKN037 22/13 Q1016 BLU